Time;durP1;ratioP1;P1;durP2;ratioP2;P2;SDS_P1;SDS_P2;PMS_P1;PMS_P2;Temp;Humidity;BMP_temperature;BMP_pressure;BME280_temperature;BME280_humidity;BME280_pressure;Samples;Min_cycle;Max_cycle;Signal;HPM_P1;HPM_P2
2021/10/21 00:00:11;;;;;;;;;;;14.30;99.90;;;;;;8333039;28;19924;-73
2021/10/21 00:04:13;;;;;;;;;;;14.30;99.90;;;;;;8353901;28;19921;-74
2021/10/21 00:08:15;;;;;;;;;;;14.40;99.90;;;;;;8333644;28;19921;-74
2021/10/21 00:12:17;;;;;;;;;;;14.40;99.90;;;;;;8332413;28;19925;-74
2021/10/21 00:16:19;;;;;;;;;;;14.50;99.90;;;;;;8336682;28;19975;-73
2021/10/21 00:20:20;;;;;;;;;;;14.50;99.90;;;;;;8342702;28;19963;-74
2021/10/21 00:24:28;;;;;;;;;;;14.50;99.90;;;;;;8331471;28;19936;-73
2021/10/21 00:28:30;;;;;;;;;;;14.50;99.90;;;;;;8336969;28;19921;-74
2021/10/21 00:32:31;;;;;;;;;;;14.50;99.90;;;;;;8331562;28;19925;-74
2021/10/21 00:36:33;;;;;;;;;;;14.50;99.90;;;;;;8338250;28;20288;-73
2021/10/21 00:40:35;;;;;;;;;;;14.50;99.90;;;;;;8344271;28;19936;-73
2021/10/21 00:44:36;;;;;;;;;;;14.50;99.90;;;;;;8323517;28;20269;-74
2021/10/21 00:48:39;;;;;;;;;;;14.60;99.90;;;;;;8326485;28;19924;-73
2021/10/21 00:52:40;;;;;;;;;;;14.60;99.90;;;;;;8335196;28;19925;-73
2021/10/21 00:56:43;;;;;;;;;;;14.60;99.90;;;;;;8330004;28;20019;-73
2021/10/21 01:00:57;;;;;;;;;;;14.60;99.90;;;;;;8347896;28;19921;-73
2021/10/21 01:04:59;;;;;;;;;;;14.60;99.90;;;;;;8334107;28;20411;-72
2021/10/21 01:09:02;;;;;;;;;;;14.60;99.90;;;;;;8330267;28;19921;-72
2021/10/21 01:13:04;;;;;;;;;;;13.50;99.90;;;;;;8336790;28;19925;-72
2021/10/21 01:17:06;;;;;;;;;;;12.70;99.90;;;;;;8328028;28;19963;-72
2021/10/21 01:21:08;;;;;;;;;;;12.20;99.90;;;;;;8329559;28;19925;-72
2021/10/21 01:25:10;;;;;;;;;;;12.00;99.90;;;;;;8321981;28;19920;-72
2021/10/21 01:29:11;;;;;;;;;;;11.80;99.90;;;;;;8332653;28;19921;-72
2021/10/21 01:33:13;;;;;;;;;;;11.80;99.90;;;;;;8331009;28;19930;-72
2021/10/21 01:37:15;;;;;;;;;;;11.70;99.90;;;;;;8328652;28;19921;-72
2021/10/21 01:41:25;;;;;;;;;;;11.70;99.90;;;;;;8328168;28;19921;-72
2021/10/21 01:45:29;;;;;;;;;;;11.70;99.90;;;;;;8325490;28;20411;-72
2021/10/21 01:49:31;;;;;;;;;;;11.70;99.90;;;;;;8326045;28;20241;-72
2021/10/21 01:53:34;;;;;;;;;;;11.50;99.90;;;;;;8336896;28;19921;-72
2021/10/21 01:57:36;;;;;;;;;;;11.40;99.90;;;;;;8330248;28;20361;-73
2021/10/21 02:01:37;;;;;;;;;;;11.30;99.90;;;;;;8331538;28;19980;-72
2021/10/21 02:05:39;;;;;;;;;;;11.30;99.90;;;;;;8324710;28;19925;-73
2021/10/21 02:09:41;;;;;;;;;;;11.20;99.90;;;;;;8329705;28;19924;-72
2021/10/21 02:13:43;;;;;;;;;;;11.20;99.90;;;;;;8322678;28;20292;-73
2021/10/21 02:17:57;;;;;;;;;;;11.20;99.90;;;;;;8328585;28;19921;-72
2021/10/21 02:21:59;;;;;;;;;;;11.10;99.90;;;;;;8327276;28;19925;-73
2021/10/21 02:26:00;;;;;;;;;;;11.10;99.90;;;;;;8329131;28;20016;-72
2021/10/21 02:30:03;;;;;;;;;;;11.20;99.90;;;;;;8332159;28;19921;-73
2021/10/21 02:34:04;;;;;;;;;;;11.20;99.90;;;;;;8335732;28;20593;-72
2021/10/21 02:38:06;;;;;;;;;;;11.20;99.90;;;;;;8335372;28;19928;-73
2021/10/21 02:42:08;;;;;;;;;;;11.30;99.90;;;;;;8326745;28;19927;-73
2021/10/21 02:46:21;;;;;;;;;;;11.30;99.90;;;;;;8327876;28;19925;-73
2021/10/21 02:50:24;;;;;;;;;;;11.30;99.90;;;;;;8327291;28;19940;-73
2021/10/21 02:54:26;;;;;;;;;;;11.30;99.90;;;;;;8334164;28;19921;-73
2021/10/21 02:58:27;;;;;;;;;;;11.30;99.90;;;;;;8331680;28;20627;-73
2021/10/21 03:02:29;;;;;;;;;;;11.30;99.90;;;;;;8335593;28;19925;-73
2021/10/21 03:06:31;;;;;;;;;;;11.30;99.90;;;;;;8338966;28;19921;-72
2021/10/21 03:10:58;;;;;;;;;;;11.30;99.90;;;;;;8334874;28;20284;-73
2021/10/21 03:14:59;;;;;;;;;;;11.30;99.90;;;;;;8336762;28;19924;-73
2021/10/21 03:19:02;;;;;;;;;;;11.40;99.90;;;;;;8337918;28;19921;-73
2021/10/21 03:23:05;;;;;;;;;;;11.40;99.90;;;;;;8321736;28;19921;-73
2021/10/21 03:27:07;;;;;;;;;;;11.40;99.90;;;;;;8320818;28;19937;-73
2021/10/21 03:31:08;;;;;;;;;;;11.40;99.90;;;;;;8323980;28;20368;-73
2021/10/21 03:35:10;;;;;;;;;;;11.40;99.90;;;;;;8328191;28;19928;-72
2021/10/21 03:39:12;;;;;;;;;;;11.50;99.90;;;;;;8331140;28;20020;-73
2021/10/21 03:43:13;;;;;;;;;;;11.50;99.90;;;;;;8337718;28;19927;-72
2021/10/21 03:47:17;;;;;;;;;;;11.60;99.90;;;;;;8337746;28;20479;-73
2021/10/21 03:51:18;;;;;;;;;;;11.60;99.90;;;;;;8333804;28;19928;-73
2021/10/21 03:55:20;;;;;;;;;;;11.70;99.90;;;;;;8337629;28;19925;-73
2021/10/21 03:59:22;;;;;;;;;;;11.70;99.90;;;;;;8330830;28;19925;-73
2021/10/21 04:03:24;;;;;;;;;;;11.70;99.90;;;;;;8333134;28;19921;-72
2021/10/21 04:07:25;;;;;;;;;;;11.70;99.90;;;;;;8328914;28;19978;-72
2021/10/21 04:11:27;;;;;;;;;;;11.70;99.90;;;;;;8321392;28;19928;-73
2021/10/21 04:15:29;;;;;;;;;;;11.80;99.90;;;;;;8331781;28;19921;-73
2021/10/21 04:19:31;;;;;;;;;;;11.80;99.90;;;;;;8321352;28;19928;-73
2021/10/21 04:23:32;;;;;;;;;;;11.80;99.90;;;;;;8333700;28;19925;-73
2021/10/21 04:27:34;;;;;;;;;;;11.80;99.90;;;;;;8328432;28;19921;-73
2021/10/21 04:31:35;;;;;;;;;;;11.80;99.90;;;;;;8327742;28;19925;-73
2021/10/21 04:35:37;;;;;;;;;;;11.80;99.90;;;;;;8336162;28;19921;-73
2021/10/21 04:39:39;;;;;;;;;;;11.70;99.90;;;;;;8330733;28;20368;-73
2021/10/21 04:43:41;;;;;;;;;;;11.70;99.90;;;;;;8359340;28;19987;-73
2021/10/21 04:47:42;;;;;;;;;;;11.70;99.90;;;;;;8330853;28;19974;-73
2021/10/21 04:51:44;;;;;;;;;;;11.70;99.90;;;;;;8350327;28;20311;-73
2021/10/21 04:55:46;;;;;;;;;;;11.60;99.90;;;;;;8334832;28;19925;-73
2021/10/21 04:59:47;;;;;;;;;;;11.60;99.90;;;;;;8332667;28;19928;-73
2021/10/21 05:03:52;;;;;;;;;;;11.60;99.90;;;;;;8332774;28;19928;-73
2021/10/21 05:07:53;;;;;;;;;;;11.50;99.90;;;;;;8326593;28;20364;-72
2021/10/21 05:11:55;;;;;;;;;;;11.60;99.90;;;;;;8333167;28;20317;-72
2021/10/21 05:15:57;;;;;;;;;;;11.50;99.90;;;;;;8337024;28;19936;-73
2021/10/21 05:19:58;;;;;;;;;;;11.40;99.90;;;;;;8329092;28;19937;-73
2021/10/21 05:24:00;;;;;;;;;;;11.20;99.90;;;;;;8334597;28;20281;-73
2021/10/21 05:28:02;;;;;;;;;;;11.10;99.90;;;;;;8320814;28;19940;-73
2021/10/21 05:32:07;;;;;;;;;;;11.00;99.90;;;;;;8315775;28;19929;-73
2021/10/21 05:36:09;;;;;;;;;;;10.90;99.90;;;;;;8312003;28;19929;-73
2021/10/21 05:40:12;;;;;;;;;;;10.80;99.90;;;;;;8345122;28;20211;-73
2021/10/21 05:44:13;;;;;;;;;;;10.70;99.90;;;;;;8349959;28;19921;-73
2021/10/21 05:48:16;;;;;;;;;;;10.70;99.90;;;;;;8331099;28;20379;-73
2021/10/21 05:52:20;;;;;;;;;;;10.70;99.90;;;;;;8327809;28;19928;-73
2021/10/21 05:56:22;;;;;;;;;;;10.60;99.90;;;;;;8345990;28;19928;-73
2021/10/21 06:00:24;;;;;;;;;;;10.60;99.90;;;;;;8339243;28;19921;-73
2021/10/21 06:04:25;;;;;;;;;;;10.60;99.90;;;;;;8323362;28;19990;-73
2021/10/21 06:08:27;;;;;;;;;;;10.60;99.90;;;;;;8331460;28;19928;-73
2021/10/21 06:12:29;;;;;;;;;;;10.60;99.90;;;;;;8332480;28;19925;-73
2021/10/21 06:16:31;;;;;;;;;;;10.60;99.90;;;;;;8348232;28;20304;-72
2021/10/21 06:20:34;;;;;;;;;;;10.60;99.90;;;;;;8331276;28;19952;-73
2021/10/21 06:24:40;;;;;;;;;;;10.70;99.90;;;;;;8306312;28;20411;-73
2021/10/21 06:28:42;;;;;;;;;;;10.70;99.90;;;;;;8324779;28;19932;-72
2021/10/21 06:32:44;;;;;;;;;;;10.60;99.90;;;;;;8349881;28;19920;-72
2021/10/21 06:37:04;;;;;;;;;;;10.60;99.90;;;;;;8325373;28;19921;-72
2021/10/21 06:41:06;;;;;;;;;;;10.60;99.90;;;;;;8362242;28;20229;-73
2021/10/21 06:45:11;;;;;;;;;;;10.50;99.90;;;;;;8340899;28;19929;-72
2021/10/21 06:49:12;;;;;;;;;;;10.50;99.90;;;;;;8329004;28;19924;-73
2021/10/21 06:53:15;;;;;;;;;;;10.50;99.90;;;;;;8350217;28;20424;-73
2021/10/21 06:57:18;;;;;;;;;;;10.50;99.90;;;;;;8341629;28;19920;-72
2021/10/21 07:01:20;;;;;;;;;;;10.60;99.90;;;;;;8335352;28;20357;-72
2021/10/21 07:05:24;;;;;;;;;;;10.60;99.90;;;;;;8335193;28;19971;-72
2021/10/21 07:09:26;;;;;;;;;;;10.70;99.90;;;;;;8363724;28;19924;-73
2021/10/21 07:13:43;;;;;;;;;;;10.80;99.90;;;;;;8337764;28;20399;-73
2021/10/21 07:17:45;;;;;;;;;;;10.80;99.90;;;;;;8359275;28;19925;-73
2021/10/21 07:21:47;;;;;;;;;;;10.80;99.90;;;;;;8335786;28;20400;-73
2021/10/21 07:25:49;;;;;;;;;;;10.80;99.90;;;;;;8338111;28;19955;-73
2021/10/21 07:29:50;;;;;;;;;;;10.70;99.90;;;;;;8349077;28;19925;-73
2021/10/21 07:33:52;;;;;;;;;;;10.70;99.90;;;;;;8364657;28;19924;-73
2021/10/21 07:37:54;;;;;;;;;;;10.80;99.90;;;;;;8327683;28;19930;-73
2021/10/21 07:42:00;;;;;;;;;;;10.80;99.90;;;;;;8320729;28;20293;-73
2021/10/21 07:46:02;;;;;;;;;;;10.90;99.90;;;;;;8348776;28;19924;-73
2021/10/21 07:50:04;;;;;;;;;;;10.90;99.90;;;;;;8316488;28;20369;-73
2021/10/21 07:54:07;;;;;;;;;;;11.00;99.90;;;;;;8326222;28;20064;-73
2021/10/21 07:58:08;;;;;;;;;;;11.10;99.90;;;;;;8316020;28;19921;-73
2021/10/21 08:02:10;;;;;;;;;;;11.20;99.90;;;;;;8323537;28;20326;-73
2021/10/21 08:06:12;;;;;;;;;;;11.20;99.90;;;;;;8333290;28;19928;-73
2021/10/21 08:10:15;;;;;;;;;;;11.40;99.90;;;;;;8327005;28;19928;-73
2021/10/21 08:14:17;;;;;;;;;;;11.40;99.90;;;;;;8337005;28;19960;-73
2021/10/21 08:18:19;;;;;;;;;;;11.50;99.90;;;;;;8322503;28;19929;-73
2021/10/21 08:22:21;;;;;;;;;;;11.60;99.90;;;;;;8331271;28;19928;-73
2021/10/21 08:26:24;;;;;;;;;;;11.80;99.90;;;;;;8333214;28;19929;-73
2021/10/21 08:30:26;;;;;;;;;;;11.70;99.90;;;;;;8328346;28;20399;-73
2021/10/21 08:34:29;;;;;;;;;;;11.70;99.90;;;;;;8339277;28;19921;-73
2021/10/21 08:38:30;;;;;;;;;;;11.60;99.90;;;;;;8330173;28;20021;-72
2021/10/21 08:42:32;;;;;;;;;;;11.40;99.90;;;;;;8324638;28;19924;-72
2021/10/21 08:46:34;;;;;;;;;;;11.10;99.90;;;;;;8330266;28;19921;-73
2021/10/21 08:50:38;;;;;;;;;;;10.80;99.90;;;;;;8326704;28;19932;-72
2021/10/21 08:54:40;;;;;;;;;;;10.60;99.90;;;;;;8334184;28;19943;-72
2021/10/21 08:58:42;;;;;;;;;;;10.50;99.90;;;;;;8315944;28;19983;-73
2021/10/21 09:02:59;;;;;;;;;;;10.30;99.90;;;;;;8323911;28;19925;-73
2021/10/21 09:11:09;;;;;;;;;;;10.20;99.90;;;;;;8317163;28;19925;-72
2021/10/21 09:15:13;;;;;;;;;;;10.20;99.90;;;;;;8324243;28;20285;-73
2021/10/21 09:19:14;;;;;;;;;;;10.10;99.90;;;;;;8320441;28;19932;-73
2021/10/21 09:23:37;;;;;;;;;;;10.10;99.90;;;;;;8324948;28;19951;-73
2021/10/21 09:27:45;;;;;;;;;;;10.20;99.90;;;;;;8352611;28;19921;-73
2021/10/21 09:32:00;;;;;;;;;;;10.20;99.90;;;;;;8338135;28;19955;-73
2021/10/21 09:36:02;;;;;;;;;;;10.30;99.90;;;;;;8324156;28;19932;-73
2021/10/21 09:40:07;;;;;;;;;;;10.40;99.90;;;;;;8332284;28;19928;-73
2021/10/21 09:49:28;;;;;;;;;;;10.50;99.90;;;;;;8291119;28;19928;-73
2021/10/21 09:53:31;;;;;;;;;;;10.50;99.90;;;;;;8324676;28;19921;-73
2021/10/21 09:57:33;;;;;;;;;;;10.50;99.90;;;;;;8325946;28;19987;-73
2021/10/21 10:01:35;;;;;;;;;;;10.70;99.90;;;;;;8350756;28;20155;-73
2021/10/21 10:05:41;;;;;;;;;;;10.80;99.90;;;;;;8328464;28;19990;-73
2021/10/21 10:09:43;;;;;;;;;;;10.90;99.90;;;;;;8326725;28;20402;-73
2021/10/21 10:13:51;;;;;;;;;;;11.00;99.90;;;;;;8338393;28;19975;-73
2021/10/21 10:17:54;;;;;;;;;;;11.10;99.90;;;;;;8328986;28;20218;-72
2021/10/21 10:21:57;;;;;;;;;;;11.00;99.90;;;;;;8330309;28;19941;-73
2021/10/21 10:25:59;;;;;;;;;;;11.00;99.90;;;;;;8334500;28;20005;-72
2021/10/21 10:30:01;;;;;;;;;;;10.90;99.90;;;;;;8336128;28;19921;-72
2021/10/21 10:34:03;;;;;;;;;;;10.90;99.90;;;;;;8336132;28;19925;-72
2021/10/21 10:38:08;;;;;;;;;;;10.90;99.90;;;;;;8352504;28;19928;-72
2021/10/21 10:42:10;;;;;;;;;;;11.00;99.90;;;;;;8331777;28;20364;-72
2021/10/21 10:46:12;;;;;;;;;;;11.30;99.90;;;;;;8370070;28;19921;-73
2021/10/21 10:50:26;;;;;;;;;;;11.50;99.90;;;;;;8330232;28;19921;-73
2021/10/21 10:54:57;;;;;;;;;;;11.80;99.90;;;;;;8337098;28;19921;-73
2021/10/21 10:59:14;;;;;;;;;;;12.00;99.90;;;;;;8322226;28;19921;-73
2021/10/21 11:03:32;;;;;;;;;;;12.00;99.90;;;;;;8332591;28;19924;-73
2021/10/21 11:07:39;;;;;;;;;;;11.90;99.90;;;;;;8327023;28;19925;-73
2021/10/21 11:11:49;;;;;;;;;;;11.90;99.90;;;;;;8334647;28;19927;-73
2021/10/21 11:15:56;;;;;;;;;;;11.90;99.90;;;;;;8331496;28;19925;-73
2021/10/21 11:19:57;;;;;;;;;;;11.60;99.90;;;;;;8333507;28;19948;-73
2021/10/21 11:23:59;;;;;;;;;;;11.20;99.90;;;;;;8343224;28;19928;-73
2021/10/21 11:28:02;;;;;;;;;;;10.90;99.90;;;;;;8339799;28;19921;-73
2021/10/21 11:32:08;;;;;;;;;;;10.60;99.90;;;;;;8337583;28;19944;-73
2021/10/21 11:36:10;;;;;;;;;;;10.40;99.90;;;;;;8332549;28;19925;-73
2021/10/21 11:40:22;;;;;;;;;;;10.30;99.90;;;;;;8333045;28;19946;-73
2021/10/21 11:44:23;;;;;;;;;;;10.20;99.90;;;;;;8338596;28;19948;-73
2021/10/21 11:48:27;;;;;;;;;;;10.10;99.90;;;;;;8352495;28;20296;-73
2021/10/21 11:52:55;;;;;;;;;;;10.10;99.90;;;;;;8338891;28;19964;-73
2021/10/21 11:56:58;;;;;;;;;;;10.10;99.90;;;;;;8335502;28;20018;-73
2021/10/21 12:01:02;;;;;;;;;;;10.10;99.90;;;;;;8344944;28;19920;-73
2021/10/21 12:05:06;;;;;;;;;;;10.00;99.90;;;;;;8360140;28;19929;-73
2021/10/21 12:09:08;;;;;;;;;;;10.00;99.90;;;;;;8330845;28;19928;-73
2021/10/21 12:13:22;;;;;;;;;;;10.00;99.90;;;;;;8346578;28;19925;-73
2021/10/21 12:17:24;;;;;;;;;;;10.10;99.90;;;;;;8326859;28;20001;-73
2021/10/21 12:21:35;;;;;;;;;;;10.20;99.90;;;;;;8335960;28;19925;-72
2021/10/21 12:25:36;;;;;;;;;;;10.20;99.90;;;;;;8336269;28;19921;-72
2021/10/21 12:29:42;;;;;;;;;;;10.30;99.90;;;;;;8344070;28;19921;-72
2021/10/21 12:34:01;;;;;;;;;;;10.50;99.90;;;;;;8339246;28;20020;-73
2021/10/21 12:38:14;;;;;;;;;;;10.80;99.90;;;;;;8337267;28;19924;-73
2021/10/21 12:42:23;;;;;;;;;;;11.10;99.90;;;;;;8337057;28;19928;-73
2021/10/21 12:46:25;;;;;;;;;;;11.30;99.90;;;;;;8330474;28;20377;-72
2021/10/21 12:50:29;;;;;;;;;;;11.20;99.90;;;;;;8331353;28;19925;-73
2021/10/21 12:54:31;;;;;;;;;;;10.90;99.90;;;;;;8345035;28;19921;-72
2021/10/21 12:58:33;;;;;;;;;;;10.50;99.90;;;;;;8330638;28;19921;-72
2021/10/21 13:02:34;;;;;;;;;;;10.20;99.90;;;;;;8341597;28;19932;-72
2021/10/21 13:06:36;;;;;;;;;;;10.00;99.90;;;;;;8344159;28;20299;-72
2021/10/21 13:10:46;;;;;;;;;;;10.00;99.90;;;;;;8356850;28;20423;-72
2021/10/21 13:14:52;;;;;;;;;;;10.10;99.90;;;;;;8341335;28;19927;-72
2021/10/21 13:18:59;;;;;;;;;;;10.10;99.90;;;;;;8336301;28;20291;-73
2021/10/21 13:23:01;;;;;;;;;;;10.10;99.90;;;;;;8336746;28;19928;-72
2021/10/21 13:27:03;;;;;;;;;;;10.10;99.90;;;;;;8337051;28;19920;-72
2021/10/21 13:31:05;;;;;;;;;;;10.00;99.90;;;;;;8330508;28;20403;-72
2021/10/21 13:35:07;;;;;;;;;;;9.80;99.90;;;;;;8341024;28;19982;-72
2021/10/21 13:39:09;;;;;;;;;;;9.70;99.90;;;;;;8351600;28;19924;-72
2021/10/21 13:43:12;;;;;;;;;;;9.80;99.90;;;;;;8323823;28;21296;-72
2021/10/21 13:47:14;;;;;;;;;;;9.90;99.90;;;;;;8340295;28;19929;-73
2021/10/21 13:51:16;;;;;;;;;;;10.10;99.90;;;;;;8314321;28;19932;-73
2021/10/21 13:55:22;;;;;;;;;;;10.30;99.90;;;;;;8312731;28;20391;-72
2021/10/21 13:59:24;;;;;;;;;;;10.50;99.90;;;;;;8316215;28;19932;-72
2021/10/21 14:03:26;;;;;;;;;;;10.60;99.90;;;;;;8320480;28;19987;-73
2021/10/21 14:07:28;;;;;;;4.63;1.00;;;10.80;99.90;;;;;;8339169;28;19925;-73
2021/10/21 14:11:31;;;;;;;;;;;11.00;99.90;;;;;;8310408;28;20099;-73
2021/10/21 14:15:36;;;;;;;;;;;11.30;99.90;;;;;;8313690;28;19921;-73
2021/10/21 14:19:37;;;;;;;;;;;11.60;99.90;;;;;;8315972;28;19921;-73
2021/10/21 14:23:39;;;;;;;;;;;11.80;99.90;;;;;;8337187;28;19923;-73
2021/10/21 14:27:41;;;;;;;;;;;12.00;99.90;;;;;;8337578;28;20289;-73
2021/10/21 14:31:43;;;;;;;;;;;11.90;99.90;;;;;;8307921;28;19930;-73
2021/10/21 14:35:44;;;;;;;;;;;12.00;99.90;;;;;;8358175;28;19936;-72
2021/10/21 14:39:46;;;;;;;;;;;11.80;99.90;;;;;;8335147;28;19921;-73
2021/10/21 14:43:48;;;;;;;;;;;11.60;99.90;;;;;;8320557;28;19925;-73
2021/10/21 14:47:49;;;;;;;;;;;11.60;99.90;;;;;;8321167;28;19936;-73
2021/10/21 14:51:51;;;;;;;;;;;11.60;99.90;;;;;;8325039;28;19940;-73
2021/10/21 14:55:53;;;;;;;;;;;11.50;99.90;;;;;;8319079;28;19982;-73
2021/10/21 14:59:55;;;;;;;;;;;11.60;99.90;;;;;;8316140;28;19925;-73
2021/10/21 15:03:57;;;;;;;;;;;11.60;99.90;;;;;;8336146;28;19932;-73
2021/10/21 15:24:38;;;;;;;;;;;11.50;99.90;;;;;;8327132;28;19925;-73
2021/10/21 15:28:40;;;;;;;;;;;11.50;99.90;;;;;;8323338;28;20441;-73
2021/10/21 15:32:43;;;;;;;;;;;11.40;99.90;;;;;;8315970;28;19929;-73
2021/10/21 15:36:45;;;;;;;;;;;11.40;99.90;;;;;;8306744;28;19928;-73
2021/10/21 15:40:47;;;;;;;;;;;11.40;99.90;;;;;;8320113;28;19921;-73
2021/10/21 15:49:10;;;;;;;;;;;11.30;99.90;;;;;;8319169;28;19921;-73
2021/10/21 16:14:40;;;;;;;;;;;10.80;99.90;;;;;;8314578;28;19925;-73
2021/10/21 16:18:45;;;;;;;;;;;10.70;99.90;;;;;;8321093;28;19982;-73
2021/10/21 16:22:51;;;;;;;;;;;10.60;99.90;;;;;;8319897;28;19976;-73
2021/10/21 16:30:55;;;;;;;;;;;10.40;99.90;;;;;;8318666;28;19921;-73
2021/10/21 16:34:57;;;;;;;;;;;10.30;99.90;;;;;;8319990;28;19928;-73
2021/10/21 16:38:58;;;;;;;;;;;10.30;99.90;;;;;;8320291;28;19921;-73
2021/10/21 16:43:00;;;;;;;;;;;10.20;99.90;;;;;;8319223;28;20365;-73
2021/10/21 16:47:02;;;;;;;;;;;10.10;99.90;;;;;;8318068;28;19947;-73
2021/10/21 16:51:03;;;;;;;;;;;10.10;99.90;;;;;;8318660;28;19986;-73
2021/10/21 16:55:06;;;;;;;;;;;10.00;99.90;;;;;;8318381;28;19974;-73
2021/10/21 16:59:08;;;;;;;;;;;10.00;99.90;;;;;;8315997;28;20544;-73
2021/10/21 17:03:09;;;;;;;;;;;9.90;99.90;;;;;;8317851;28;19928;-73
2021/10/21 17:07:11;;;;;;;;;;;9.80;99.90;;;;;;8317080;28;19921;-73
2021/10/21 17:11:13;;;;;;;;;;;9.80;99.90;;;;;;8318695;28;19943;-73
2021/10/21 17:15:16;;;;;;;;;;;9.80;99.90;;;;;;8313403;28;20312;-73
2021/10/21 17:19:17;;;;;;;;;;;9.70;99.90;;;;;;8316848;28;19921;-73
2021/10/21 17:23:19;;;;;;;;;;;9.60;99.90;;;;;;8316419;28;19928;-73
2021/10/21 17:27:21;;;;;;;;;;;9.50;99.90;;;;;;8322395;28;19928;-74
2021/10/21 17:31:23;;;;;;;;;;;9.50;99.90;;;;;;8318077;28;19929;-73
2021/10/21 17:35:25;;;;;;;;;;;9.40;99.90;;;;;;8308782;28;19965;-73
2021/10/21 17:39:26;;;;;;;;;;;9.30;99.90;;;;;;8314868;28;20220;-73
2021/10/21 17:43:30;;;;;;;;;;;9.30;99.90;;;;;;8314776;28;20372;-74
2021/10/21 17:47:32;;;;;;;;;;;9.30;99.90;;;;;;8314071;28;19933;-73
2021/10/21 17:51:34;;;;;;;;;;;9.30;99.90;;;;;;8310868;28;20871;-73
2021/10/21 17:55:35;;;;;;;;;;;9.30;99.90;;;;;;8306345;28;19924;-73
2021/10/21 17:59:37;;;;;;;;;;;9.30;99.90;;;;;;8345140;28;19967;-73
2021/10/21 18:03:39;;;;;;;;;;;9.30;99.90;;;;;;8348730;28;20011;-73
2021/10/21 18:07:41;;;;;;;;;;;9.30;99.90;;;;;;8310938;28;20380;-73
2021/10/21 18:11:44;;;;;;;;;;;9.20;99.90;;;;;;8303903;28;19929;-73
2021/10/21 18:15:46;;;;;;;;;;;9.20;99.90;;;;;;8314089;28;20005;-73
2021/10/21 18:19:48;;;;;;;;;;;9.20;99.90;;;;;;8313875;28;19921;-73
2021/10/21 18:23:49;;;;;;;;;;;9.20;99.90;;;;;;8325431;28;19925;-73
2021/10/21 18:27:52;;;;;;;;;;;9.20;99.90;;;;;;8313104;28;20347;-73
2021/10/21 18:31:54;;;;;;;;;;;9.20;99.90;;;;;;8309498;28;19929;-73
2021/10/21 18:35:56;;;;;;;;;;;9.20;99.90;;;;;;8318220;28;19928;-73
2021/10/21 18:39:59;;;;;;;;;;;9.30;99.90;;;;;;8324600;28;19925;-73
2021/10/21 18:44:00;;;;;;;;;;;9.30;99.90;;;;;;8315119;28;20323;-73
2021/10/21 18:48:02;;;;;;;;;;;9.20;99.90;;;;;;8356128;28;20324;-73
2021/10/21 18:52:06;;;;;;;;;;;9.20;99.90;;;;;;8327402;28;19925;-74
2021/10/21 18:56:09;;;;;;;;;;;9.20;99.90;;;;;;8334846;28;19929;-73
2021/10/21 19:00:11;;;;;;;;;;;9.10;99.90;;;;;;8324996;28;19921;-73
2021/10/21 19:04:13;;;;;;;;;;;9.10;99.90;;;;;;8337562;28;19929;-73
2021/10/21 19:08:14;;;;;;;;;;;9.20;99.90;;;;;;8325114;28;19921;-73
2021/10/21 19:12:16;;;;;;;;;;;9.10;99.90;;;;;;8322962;28;20292;-73
2021/10/21 19:16:18;;;;;;;;;;;9.10;99.90;;;;;;8325604;28;19987;-73
2021/10/21 19:20:20;;;;;;;;;;;9.10;99.90;;;;;;8319499;28;19921;-73
2021/10/21 19:24:22;;;;;;;;;;;9.10;99.90;;;;;;8326221;28;19994;-73
2021/10/21 19:28:24;;;;;;;;;;;9.10;99.90;;;;;;8325195;28;19971;-73
2021/10/21 19:32:26;;;;;;;;;;;9.10;99.90;;;;;;8321261;28;19963;-73
2021/10/21 19:36:28;;;;;;;;;;;9.10;99.90;;;;;;8325069;28;19921;-75
2021/10/21 19:40:30;;;;;;;;;;;9.10;99.90;;;;;;8324438;28;19928;-73
2021/10/21 19:44:31;;;;;;;;;;;9.10;99.90;;;;;;8319730;28;19968;-74
2021/10/21 19:48:33;;;;;;;;;;;9.10;99.90;;;;;;8311156;28;20010;-73
2021/10/21 19:52:35;;;;;;;;;;;9.10;99.90;;;;;;8351539;28;19929;-73
2021/10/21 19:56:36;;;;;;;;;;;9.10;99.90;;;;;;8312313;28;19929;-74
2021/10/21 20:00:38;;;;;;;;;;;9.10;99.90;;;;;;8318603;28;19921;-73
2021/10/21 20:04:40;;;;;;;;;;;9.10;99.90;;;;;;8315964;28;19925;-73
2021/10/21 20:08:42;;;;;;;;;;;9.00;99.90;;;;;;8314506;28;20537;-73
2021/10/21 20:12:52;;;;;;;;;;;9.00;99.90;;;;;;8301487;28;19925;-74
2021/10/21 20:16:54;;;;;;;;;;;9.00;99.90;;;;;;8306073;28;19936;-73
2021/10/21 20:20:55;;;;;;;;;;;9.00;99.90;;;;;;8322443;28;19928;-73
2021/10/21 20:24:57;;;;;;;;;;;9.00;99.90;;;;;;8314028;28;20316;-73
2021/10/21 20:28:59;;;;;;;;;;;8.90;99.90;;;;;;8318956;28;20353;-74
2021/10/21 20:33:01;;;;;;;;;;;8.90;99.90;;;;;;8319570;28;19929;-73
2021/10/21 20:37:03;;;;;;;;;;;8.90;99.90;;;;;;8318725;28;19921;-73
2021/10/21 20:41:05;;;;;;;;;;;8.80;99.90;;;;;;8321528;28;20024;-75
2021/10/21 20:45:07;;;;;;;;;;;8.80;99.90;;;;;;8319752;28;19925;-73
2021/10/21 20:49:10;;;;;;;;;;;8.80;99.90;;;;;;8319508;28;22819;-73
2021/10/21 20:53:12;;;;;;;;;;;8.80;99.90;;;;;;8320989;28;20406;-73
2021/10/21 20:57:13;;;;;;;;;;;8.90;99.90;;;;;;8322400;28;19921;-73
2021/10/21 21:01:16;;;;;;;;;;;8.90;99.90;;;;;;8323149;28;19921;-73
2021/10/21 21:05:18;;;;;;;;;;;8.90;99.90;;;;;;8328152;28;19921;-73
2021/10/21 21:09:20;;;;;;;;;;;9.00;99.90;;;;;;8330905;28;19931;-73
2021/10/21 21:13:21;;;;;;;;;;;9.00;99.90;;;;;;8334253;28;19921;-73
2021/10/21 21:17:23;;;;;;;;;;;9.00;99.90;;;;;;8328234;28;19928;-73
2021/10/21 21:21:25;;;;;;;;;;;8.90;99.90;;;;;;8320678;28;19921;-73
2021/10/21 21:25:29;;;;;;;;;;;8.80;99.90;;;;;;8327991;28;20284;-73
2021/10/21 21:29:31;;;;;;;;;;;8.70;99.90;;;;;;8349650;28;20418;-74
2021/10/21 21:33:35;;;;;;;;;;;8.70;99.90;;;;;;8332092;28;19920;-73
2021/10/21 21:37:37;;;;;;;;;;;8.70;99.90;;;;;;8327074;28;19933;-73
2021/10/21 21:41:38;;;;;;;;;;;8.70;99.90;;;;;;8329056;28;19944;-74
2021/10/21 21:45:40;;;;;;;;;;;8.60;99.90;;;;;;8324354;28;19932;-73
2021/10/21 21:49:42;;;;;;;;;;;8.60;99.90;;;;;;8332463;28;19928;-73
2021/10/21 21:53:49;;;;;;;;;;;8.40;99.90;;;;;;8331268;28;19929;-73
2021/10/21 21:57:53;;;;;;;;;;;8.30;99.90;;;;;;8324403;28;19925;-73
2021/10/21 22:01:56;;;;;;;;;;;8.20;99.90;;;;;;8327963;28;19948;-72
2021/10/21 22:05:57;;;;;;;;;;;8.10;99.90;;;;;;8322407;28;19925;-73
2021/10/21 22:09:59;;;;;;;;;;;8.00;99.90;;;;;;8327256;28;19955;-73
2021/10/21 22:14:06;;;;;;;;;;;8.00;99.90;;;;;;8323914;28;19930;-73
2021/10/21 22:18:08;;;;;;;;;;;8.00;99.90;;;;;;8318566;28;19925;-73
2021/10/21 22:22:10;;;;;;;;;;;7.90;99.90;;;;;;8325617;28;19924;-73
2021/10/21 22:26:12;;;;;;;;;;;7.90;99.90;;;;;;8335030;28;19922;-73
2021/10/21 22:30:14;;;;;;;;;;;7.90;99.90;;;;;;8324908;28;19921;-73
2021/10/21 22:34:16;;;;;;;;;;;7.80;99.90;;;;;;8317667;28;20257;-73
2021/10/21 22:38:17;;;;;;;;;;;7.70;99.90;;;;;;8334975;28;19925;-73
2021/10/21 22:42:19;;;;;;;;;;;7.70;99.90;;;;;;8324831;28;19975;-73
2021/10/21 22:46:21;;;;;;;;;;;7.60;99.90;;;;;;8321387;28;19921;-73
2021/10/21 22:50:24;;;;;;;;;;;7.50;99.90;;;;;;8315191;28;19975;-73
2021/10/21 22:54:26;;;;;;;;;;;7.30;99.90;;;;;;8327206;28;20024;-73
2021/10/21 22:58:29;;;;;;;;;;;7.20;99.90;;;;;;8325803;28;19980;-73
2021/10/21 23:02:32;;;;;;;;;;;7.10;99.90;;;;;;8328961;28;20597;-74
2021/10/21 23:06:38;;;;;;;;;;;7.10;99.90;;;;;;8331032;28;20387;-72
2021/10/21 23:10:44;;;;;;;;;;;7.10;99.90;;;;;;8331432;28;19925;-73
2021/10/21 23:14:46;;;;;;;;;;;7.10;99.90;;;;;;8313410;28;19922;-72
2021/10/21 23:18:48;;;;;;;;;;;7.00;99.90;;;;;;8325610;28;20440;-72
2021/10/21 23:22:50;;;;;;;;;;;7.10;99.90;;;;;;8356322;28;20391;-73
2021/10/21 23:26:52;;;;;;;;;;;7.20;99.90;;;;;;8327615;28;19921;-72
2021/10/21 23:30:54;;;;;;;;;;;7.20;99.90;;;;;;8324165;28;20369;-73
2021/10/21 23:34:56;;;;;;;;;;;7.30;99.90;;;;;;8331121;28;19924;-72
2021/10/21 23:38:59;;;;;;;;;;;7.30;99.90;;;;;;8356021;28;19925;-73
2021/10/21 23:43:00;;;;;;;;;;;7.30;99.90;;;;;;8324721;28;19922;-73
2021/10/21 23:47:02;;;;;;;;;;;7.40;99.90;;;;;;8344622;28;19922;-73
2021/10/21 23:51:04;;;;;;;;;;;7.40;99.90;;;;;;8323723;28;19928;-74
2021/10/21 23:55:06;;;;;;;;;;;7.40;99.90;;;;;;8332659;28;19920;-73
2021/10/21 23:59:07;;;;;;;;;;;7.40;99.90;;;;;;8326494;28;19925;-73
